deformed-offering

Nearby METAR Reports

 

KSJC - San Jose, California, USA
Distance from station: NE 9mi, 14km
Updated: Thu, 19-May-2022 6:53am PDT
Few Clouds
Few Clouds
 Wind from N
Wind: N 6 mph , 9 km/h
Temperature: 61°F , 16°C
Dew Point: 54°F , 12°C
Humidity: 77%
Barometer: 30.00 inHg , 1015.9 hPa
Clouds: Few Clouds
Visibility: 9 miles , 14 km
Cloud details: Few Clouds 7000 ft
Few Clouds 11000 ft
2022/05/19 13:53 KSJC 191353Z 35005KT 9SM FEW070 FEW110 16/12 A3000 RMK AO2 SLP158 T01560117
KPAO - Palo Alto, California, USA
Distance from station: NNW 14mi, 23km
Updated: Thu, 19-May-2022 6:47am PDT
Clear
Clear
 Wind from calm
Wind: Calm
Temperature: 57°F , 14°C
Dew Point: 52°F , 11°C
Humidity: 82%
Barometer: 30.01 inHg , 1016.3 hPa
Clouds: Clear
Visibility: 10 miles , 16 km
2022/05/19 13:47 KPAO 191347Z 00000KT 10SM SKC 14/11 A3001
 
KSQL - San Carlos Airpo, California, USA
Distance from station: NW 21mi, 34km
Updated: Thu, 19-May-2022 6:55am PDT
Clear
Clear
 Wind from calm
Wind: Calm
Temperature: 59°F , 15°C
Dew Point: 48°F , 9°C
Humidity: 68%
Barometer: 30.01 inHg , 1016.3 hPa
Clouds: Clear
Visibility: 10 miles , 16 km
2022/05/19 13:55 KSQL 191355Z AUTO 00000KT 10SM CLR 15/09 A3001 RMK AO2
KWVI - Watsonville, California, USA
Distance from station: SSE 27mi, 44km
Updated: Thu, 19-May-2022 6:53am PDT
Clear
Clear
 Wind from calm
Wind: Calm
Temperature: 54°F , 12°C
Dew Point: 52°F , 11°C
Humidity: 94%
Barometer: 29.99 inHg , 1015.6 hPa
Clouds: Clear
Visibility: 8 miles , 13 km
2022/05/19 13:53 KWVI 191353Z AUTO 00000KT 8SM CLR 12/11 A2999 RMK AO2 SLP154 T01170106
 
KHWD - Hayward, California, USA
Distance from station: N 28mi, 44km
Updated: Thu, 19-May-2022 6:54am PDT
Clear
Clear
 Wind from calm
Wind: Calm
Temperature: 57°F , 14°C
Dew Point: 54°F , 12°C
Humidity: 88%
Barometer: 30.00 inHg , 1015.9 hPa
Clouds: Clear
Visibility: 10 miles , 16 km
2022/05/19 13:54 KHWD 191354Z 00000KT 10SM CLR 14/12 A3000 RMK AO2 SLP167 T01440122
KSFO - San Francisco, California, USA
Distance from station: NW 30mi, 49km
Updated: Thu, 19-May-2022 6:56am PDT
Few Clouds
Few Clouds
 Wind from WNW
Wind: WNW 24 mph , 39 km/h, Gust: 29 mph , 46 km/h
Temperature: 55°F , 13°C
Dew Point: 48°F , 9°C
Humidity: 77%
Barometer: 30.00 inHg , 1015.9 hPa
Clouds: Few Clouds
Visibility: 10 miles , 16 km
Cloud details: Few Clouds 20000 ft
2022/05/19 13:56 KSFO 191356Z 29021G25KT 10SM FEW200 13/09 A3000 RMK AO2 SLP160 T01330089
 
KHAF - Half Moon Bay, California, USA
Distance from station: WNW 31mi, 50km
Updated: Thu, 19-May-2022 7:15am PDT
Mist, Clear
Mist, Clear
 Wind from NNW
Wind: NNW 16 mph , 26 km/h, Gust: 23 mph , 37 km/h
Temperature: 54°F , 12°C
Dew Point: 52°F , 11°C
Humidity: 94%
Barometer: 30.02 inHg , 1016.6 hPa
Summary: Mist
Clouds: Clear
Visibility: 5 miles , 8 km
2022/05/19 14:15 KHAF 191415Z AUTO 34014G20KT 5SM BR CLR 12/11 A3002 RMK AO2
KLVK - Livermore, California, USA
Distance from station: NNE 31mi, 51km
Updated: Thu, 19-May-2022 6:53am PDT
Clear
Clear
 Wind from calm
Wind: Calm
Temperature: 61°F , 16°C
Dew Point: 52°F , 11°C
Humidity: 72%
Barometer: 29.99 inHg , 1015.6 hPa
Clouds: Clear
Visibility: 10 miles , 16 km
2022/05/19 13:53 KLVK 191353Z 00000KT 10SM CLR 16/11 A2999 RMK AO2 SLP151 T01610106
 
KOAK - Oakland, California, USA
Distance from station: NNW 33mi, 53km
Updated: Thu, 19-May-2022 6:53am PDT
Few Clouds
Few Clouds
 Wind from calm
Wind: Calm
Temperature: 59°F , 15°C
Dew Point: 54°F , 12°C
Humidity: 82%
Barometer: 30.00 inHg , 1015.9 hPa
Clouds: Few Clouds
Visibility: 10 miles , 16 km
Cloud details: Few Clouds 20000 ft
2022/05/19 13:53 KOAK 191353Z 00000KT 10SM FEW200 15/12 A3000 RMK AO2 SLP159 T01500122
KCVH - Hollister Muni, California, USA
Distance from station: SE 42mi, 68km
Updated: Thu, 19-May-2022 7:15am PDT
Clear
Clear
 Wind from calm
Wind: Calm
Temperature: 63°F , 17°C
Dew Point: 52°F , 11°C
Humidity: 68%
Barometer: 30.00 inHg , 1015.9 hPa
Clouds: Clear
Visibility: 9 miles , 14 km
2022/05/19 14:15 KCVH 191415Z AUTO 00000KT 9SM CLR 17/11 A3000 RMK A01
 
KSNS - Salinas, California, USA
Distance from station: SSE 48mi, 77km
Updated: Thu, 19-May-2022 7:12am PDT
Haze, Few clouds
Haze, Few clouds
 Wind from NW
Wind: NW 8 mph , 13 km/h
Temperature: 57°F , 14°C
Dew Point: 50°F , 10°C
Humidity: 77%
Barometer: 29.98 inHg , 1015.2 hPa
Summary: Haze
Clouds: Few Clouds
Visibility: 6 miles , 10 km
Cloud details: Few Clouds 600 ft
2022/05/19 14:12 KSNS 191412Z 31007KT 6SM HZ FEW006 14/10 A2998 RMK AO2 T01390100
KMRY - Monterey, California, USA
Distance from station: SSE 49mi, 78km
Updated: Thu, 19-May-2022 6:54am PDT
Haze, Clear
Haze, Clear
 Wind from ESE
Wind: ESE 3 mph , 6 km/h
Temperature: 55°F , 13°C
Dew Point: 48°F , 9°C
Humidity: 77%
Barometer: 29.99 inHg , 1015.6 hPa
Summary: Haze
Clouds: Clear
Visibility: 6 miles , 10 km
2022/05/19 13:54 KMRY 191354Z 12003KT 6SM HZ CLR 13/09 A2999 RMK AO2 SLP168 T01280094
 
KCCR - Concord, California, USA
Distance from station: N 50mi, 81km
Updated: Thu, 19-May-2022 6:53am PDT
Clear
Clear
 Wind from WSW
Wind: WSW 5 mph , 7 km/h
Temperature: 68°F , 20°C
Dew Point: 46°F , 8°C
Humidity: 46%
Barometer: 29.97 inHg , 1014.9 hPa
Clouds: Clear
Visibility: 10 miles , 16 km
2022/05/19 13:53 KCCR 191353Z 24004KT 10SM CLR 20/08 A2997 RMK AO2 SLP136 T02000083
deformed-offering